Time;durP1;ratioP1;P1;durP2;ratioP2;P2;SDS_P1;SDS_P2;PMS_P1;PMS_P2;Temp;Humidity;BMP_temperature;BMP_pressure;BME280_temperature;BME280_humidity;BME280_pressure;Samples;Min_cycle;Max_cycle;Signal;HPM_P1;HPM_P2
2022/05/21 00:00:45;;;;;;;;;;;15.10;99.90;;;;;;5063126;28;20003;-76
2022/05/21 00:03:11;;;;;;;;;;;15.10;99.90;;;;;;5071498;28;19909;-76
2022/05/21 00:05:37;;;;;;;;;;;15.10;99.90;;;;;;5066570;28;19916;-76
2022/05/21 00:08:04;;;;;;;;;;;15.10;99.90;;;;;;5081221;28;19932;-76
2022/05/21 00:10:31;;;;;;;;;;;15.10;99.90;;;;;;5080167;28;20028;-76
2022/05/21 00:12:58;;;;;;;;;;;15.10;99.90;;;;;;5075489;28;19919;-76
2022/05/21 00:15:28;;;;;;;;;;;15.10;99.90;;;;;;5069325;28;19943;-76
2022/05/21 00:17:56;;;;;;;;;;;15.00;99.90;;;;;;5070365;28;19915;-76
2022/05/21 00:20:47;;;;;;;;;;;15.00;99.90;;;;;;5061657;28;20430;-76
2022/05/21 00:23:13;;;;;;;;;;;15.00;99.90;;;;;;5059016;28;19915;-76
2022/05/21 00:25:39;;;;;;;;;;;14.90;99.90;;;;;;5058505;28;19948;-75
2022/05/21 00:28:09;;;;;;;;;;;14.90;99.90;;;;;;5059775;28;19921;-85
2022/05/21 00:30:38;;;;;;;;;;;15.00;99.90;;;;;;5071044;28;19917;-85
2022/05/21 00:33:04;;;;;;;;;;;15.10;99.90;;;;;;5082594;28;19912;-85
2022/05/21 00:35:30;;;;;;;;;;;15.10;99.90;;;;;;5073881;28;19915;-85
2022/05/21 00:37:56;;;;;;;;;;;15.10;99.90;;;;;;5076863;28;19936;-85
2022/05/21 00:40:22;;;;;;;;;;;15.10;99.90;;;;;;5072860;28;19980;-85
2022/05/21 00:42:48;;;;;;;;;;;15.30;99.90;;;;;;5070876;28;19913;-77
2022/05/21 00:45:14;;;;;;;;;;;15.30;99.90;;;;;;5059140;28;19919;-75
2022/05/21 00:47:40;;;;;;;;;;;15.40;99.90;;;;;;5069826;28;19912;-76
2022/05/21 00:50:08;;;;;;;;;;;15.50;99.90;;;;;;5059385;28;19928;-75
2022/05/21 00:52:39;;;;;;;;;;;15.50;99.90;;;;;;5059334;28;19917;-76
2022/05/21 00:55:08;;;;;;;;;;;15.50;99.90;;;;;;5068963;28;19999;-77
2022/05/21 00:57:40;;;;;;;;;;;15.50;99.90;;;;;;5073758;28;20429;-76
2022/05/21 01:00:22;;;;;;;;;;;15.50;99.90;;;;;;5060313;28;20209;-85
2022/05/21 01:03:14;;;;;;;;;;;15.40;99.90;;;;;;5041072;28;19909;-84
2022/05/21 01:05:40;;;;;;;;;;;15.30;99.90;;;;;;5045264;28;19959;-85
2022/05/21 01:08:20;;;;;;;;;;;15.10;99.90;;;;;;5060736;28;19909;-84
2022/05/21 01:10:50;;;;;;;;;;;15.00;99.90;;;;;;5094557;28;19919;-85
2022/05/21 01:13:23;;;;;;;;;;;15.00;99.90;;;;;;5060830;28;19912;-85
2022/05/21 01:15:51;;;;;;;;;;;14.90;99.90;;;;;;5083611;28;19935;-75
2022/05/21 01:18:17;;;;;;;;;;;14.80;99.90;;;;;;5061986;28;19909;-76
2022/05/21 01:20:47;;;;;;;;;;;14.70;99.90;;;;;;5073196;28;19916;-76
2022/05/21 01:23:14;;;;;;;;;;;14.70;99.90;;;;;;5062355;28;19908;-75
2022/05/21 01:25:45;;;;;;;;;;;14.60;99.90;;;;;;5069530;28;19955;-76
2022/05/21 01:28:12;;;;;;;;;;;14.50;99.90;;;;;;5062481;28;19916;-76
2022/05/21 01:30:46;;;;;;;;;;;14.40;99.90;;;;;;5062695;28;20430;-75
2022/05/21 01:33:22;;;;;;;;;;;14.40;99.90;;;;;;5062839;28;19913;-76
2022/05/21 01:35:50;;;;;;;;;;;14.20;99.90;;;;;;5072478;28;20359;-75
2022/05/21 01:38:17;;;;;;;;;;;14.20;99.90;;;;;;5064792;28;19909;-76
2022/05/21 01:40:51;;;;;;;;;;;14.10;99.90;;;;;;5075676;28;19920;-75
2022/05/21 01:46:05;;;;;;;;;;;14.00;99.90;;;;;;5068756;28;19939;-76
2022/05/21 01:48:45;;;;;;;;;;;13.90;99.90;;;;;;5063795;28;19908;-75
2022/05/21 01:51:10;;;;;;;;;;;13.90;99.90;;;;;;5092649;28;20330;-76
2022/05/21 01:53:37;;;;;;;;;;;13.80;99.90;;;;;;5069989;28;19912;-76
2022/05/21 01:56:03;;;;;;;;;;;13.80;99.90;;;;;;5079310;28;19983;-76
2022/05/21 01:58:32;;;;;;;;;;;13.70;99.90;;;;;;5070834;28;19908;-76
2022/05/21 02:00:58;;;;;;;;;;;13.70;99.90;;;;;;5063332;28;19967;-76
2022/05/21 02:03:26;;;;;;;;;;;13.60;99.90;;;;;;5062686;28;19913;-84
2022/05/21 02:05:52;;;;;;;;;;;13.60;99.90;;;;;;5081112;28;19908;-84
2022/05/21 02:08:32;;;;;;;;;;;13.50;99.90;;;;;;5069298;28;19954;-84
2022/05/21 02:11:20;;;;;;;;;;;13.40;99.90;;;;;;5071094;28;19944;-84
2022/05/21 02:13:56;;;;;;;;;;;13.40;99.90;;;;;;5067330;28;19917;-84
2022/05/21 02:16:22;;;;;;;;;;;13.30;99.90;;;;;;5074233;28;19912;-81
2022/05/21 02:18:47;;;;;;;;;;;13.20;99.90;;;;;;5063977;28;19909;-76
2022/05/21 02:21:13;;;;;;;;;;;13.20;99.90;;;;;;5062448;28;19909;-76
2022/05/21 02:23:39;;;;;;;;;;;13.10;1.00;;;;;;5061958;28;19940;-76
2022/05/21 02:26:04;;;;;;;;;;;13.00;1.00;;;;;;5060397;28;19909;-76
2022/05/21 02:28:38;;;;;;;;;;;13.00;1.00;;;;;;5073246;28;19986;-76
2022/05/21 02:31:14;;;;;;;;;;;12.90;1.00;;;;;;5072504;28;19912;-76
2022/05/21 02:33:40;;;;;;;;;;;12.80;1.00;;;;;;5062410;28;19966;-76
2022/05/21 02:36:08;;;;;;;;;;;12.70;1.00;;;;;;5055917;28;19909;-75
2022/05/21 02:41:19;;;;;;;;;;;12.50;1.00;;;;;;5073976;28;19916;-76
2022/05/21 02:44:09;;;;;;;;;;;12.50;1.00;;;;;;5072979;28;20026;-75
2022/05/21 02:46:38;;;;;;;;;;;12.30;1.00;;;;;;5085212;28;19908;-82
2022/05/21 02:49:04;;;;;;;;;;;12.20;1.00;;;;;;5061219;28;19956;-76
2022/05/21 02:51:38;;;;;;;;;;;12.20;1.00;;;;;;5061519;28;19913;-76
2022/05/21 02:54:14;;;;;;;;;;;12.10;1.00;;;;;;5070242;28;19916;-76
2022/05/21 02:56:51;;;;;;;;;;;12.00;1.00;;;;;;5068459;28;20390;-76
2022/05/21 02:59:17;;;;;;;;;;;11.90;1.00;;;;;;5064893;28;19908;-76
2022/05/21 03:01:44;;;;;;;;;;;11.80;1.00;;;;;;5078974;28;19920;-83
2022/05/21 03:04:10;;;;;;;;;;;11.80;1.00;;;;;;5065493;28;19979;-83
2022/05/21 03:07:02;;;;;;;;;;;11.70;1.00;;;;;;5081860;28;19909;-84
2022/05/21 03:12:44;;;;;;;;;;;11.60;1.00;;;;;;5041611;28;19967;-84
2022/05/21 03:15:33;;;;;;;;;;;11.60;1.00;;;;;;5089498;28;19909;-84
2022/05/21 03:18:02;;;;;;;;;;;11.50;1.00;;;;;;5063546;28;19909;-77
2022/05/21 03:20:32;;;;;;;;;;;11.50;1.00;;;;;;5074677;28;19909;-76
2022/05/21 03:23:03;;;;;;;;;;;11.50;1.00;;;;;;5061550;28;19909;-76
2022/05/21 03:25:32;;;;;;;;;;;11.50;1.00;;;;;;5061030;28;19909;-76
2022/05/21 03:27:58;;;;;;;;;;;11.50;1.00;;;;;;5074196;28;19916;-77
2022/05/21 03:30:33;;;;;;;;;;;11.60;1.00;;;;;;5066258;28;19919;-76
2022/05/21 03:36:14;;;;;;;;;;;11.50;1.00;;;;;;5063739;28;19915;-83
2022/05/21 03:41:56;;;;;;;;;;;11.60;1.00;;;;;;5057117;28;20212;-83
2022/05/21 03:44:38;;;;;;;;;;;11.60;1.00;;;;;;5111632;28;19922;-83
2022/05/21 03:47:09;;;;;;;;;;;11.60;1.00;;;;;;5092570;28;19908;-83
2022/05/21 03:49:44;;;;;;;;;;;11.50;1.00;;;;;;5062464;28;19931;-83
2022/05/21 03:52:26;;;;;;;;;;;11.50;1.00;;;;;;5060749;28;19913;-84
2022/05/21 03:55:03;;;;;;;;;;;11.50;1.00;;;;;;5061903;28;19919;-84
2022/05/21 03:57:32;;;;;;;;;;;11.40;1.00;;;;;;5062470;28;19920;-84
2022/05/21 04:00:26;;;;;;;;;;;11.40;1.00;;;;;;5060852;28;19909;-84
2022/05/21 04:03:02;;;;;;;;;;;11.40;1.00;;;;;;5061329;28;19917;-76
2022/05/21 04:05:28;;;;;;;;;;;11.40;1.00;;;;;;5058148;28;19909;-76
2022/05/21 04:08:09;;;;;;;;;;;11.50;1.00;;;;;;5059626;28;19954;-76
2022/05/21 04:10:56;;;;;;;;;;;11.50;1.00;;;;;;5059156;28;19913;-76
2022/05/21 04:13:32;;;;;;;;;;;11.50;1.00;;;;;;5072835;28;19913;-76
2022/05/21 04:16:08;;;;;;;;;;;11.50;1.00;;;;;;5087511;28;19920;-76
2022/05/21 04:18:44;;;;;;;;;;;11.50;1.00;;;;;;5067227;28;19958;-78
2022/05/21 04:21:10;;;;;;;;;;;11.50;1.00;;;;;;5070401;28;20492;-76
2022/05/21 04:23:56;;;;;;;;;;;11.50;1.00;;;;;;5063198;28;19909;-76
2022/05/21 04:26:22;;;;;;;;;;;11.50;1.00;;;;;;5055961;28;20058;-77
2022/05/21 04:28:50;;;;;;;;;;;11.50;1.00;;;;;;5050215;28;19999;-76
2022/05/21 04:31:16;;;;;;;;;;;11.50;1.00;;;;;;5056522;28;19932;-74
2022/05/21 04:34:14;;;;;;;;;;;11.60;1.00;;;;;;5049814;28;19917;-79
2022/05/21 04:36:44;;;;;;;;;;;11.60;1.00;;;;;;5053166;28;19978;-77
2022/05/21 04:39:10;;;;;;;;;;;11.70;1.00;;;;;;5073711;28;19915;-78
2022/05/21 04:41:35;;;;;;;;;;;11.80;1.00;;;;;;5071573;28;19912;-78
2022/05/21 04:44:09;;;;;;;;;;;11.80;1.00;;;;;;5065531;28;19915;-78
2022/05/21 04:46:35;;;;;;;;;;;11.90;1.00;;;;;;5073331;28;19908;-77
2022/05/21 04:49:01;;;;;;;;;;;11.90;1.00;;;;;;5073959;28;19916;-79
2022/05/21 04:51:38;;;;;;;;;;;11.90;1.00;;;;;;5074200;28;19915;-78
2022/05/21 04:54:04;;;;;;;;;;;12.00;1.00;;;;;;5075025;28;19912;-78
2022/05/21 04:59:46;;;;;;;;;;;12.10;1.00;;;;;;5063284;28;20402;-78
2022/05/21 05:02:38;;;;;;;;;;;12.20;1.00;;;;;;5076031;28;19916;-78
2022/05/21 05:05:26;;;;;;;;;;;12.30;1.00;;;;;;5069104;28;19909;-78
2022/05/21 05:07:56;;;;;;;;;;;12.40;1.00;;;;;;5077326;28;20070;-78
2022/05/21 05:10:38;;;;;;;;;;;12.50;1.00;;;;;;5073766;28;19912;-78
2022/05/21 05:13:09;;;;;;;;;;;12.50;1.00;;;;;;5077206;28;19958;-78
2022/05/21 05:15:46;;;;;;;;;;;12.60;1.00;;;;;;5058785;28;19996;-78
2022/05/21 05:18:13;;;;;;;;;;;12.70;1.00;;;;;;5056967;28;19951;-79
2022/05/21 05:20:45;;;;;;;;;;;12.80;1.00;;;;;;5089494;28;19955;-81
2022/05/21 05:26:33;;;;;;;;;;;13.00;1.00;;;;;;5069350;28;20382;-80
2022/05/21 05:29:02;;;;;;;;;;;13.20;1.00;;;;;;5056860;28;20042;-80
2022/05/21 05:31:32;;;;;;;;;;;13.30;1.00;;;;;;5055468;28;20361;-79
2022/05/21 05:34:15;;;;;;;;;;;13.50;1.00;;;;;;5089155;28;20372;-79
2022/05/21 05:36:51;;;;;;;;;;;13.60;1.00;;;;;;5070005;28;19909;-80
2022/05/21 05:39:21;;;;;;;;;;;13.70;1.00;;;;;;5055821;28;19921;-80
2022/05/21 05:41:51;;;;;;;;;;;13.90;1.00;;;;;;5043151;28;19909;-80
2022/05/21 05:50:23;;;;;;;;;;;14.30;99.90;;;;;;5052324;28;19962;-78
2022/05/21 05:52:48;;;;;;;;;;;14.50;99.90;;;;;;5060553;28;19917;-78
2022/05/21 05:55:14;;;;;;;;;;;14.50;99.90;;;;;;5058788;28;19925;-78
2022/05/21 05:57:40;;;;;;;;;;;14.70;99.90;;;;;;5054345;28;19913;-78
2022/05/21 06:00:07;;;;;;;;;;;14.90;99.90;;;;;;5062982;28;19944;-78
2022/05/21 06:05:17;;;;;;;;;;;15.30;99.90;;;;;;5072856;28;19947;-80
2022/05/21 06:07:50;;;;;;;;;;;15.40;99.90;;;;;;5053438;28;20035;-77
2022/05/21 06:10:18;;;;;;;;;;;15.40;99.90;;;;;;5067549;28;20306;-78
2022/05/21 06:12:44;;;;;;;;;;;15.50;99.90;;;;;;5068603;28;20359;-78
2022/05/21 06:15:20;;;;;;;;;;;15.60;99.90;;;;;;5064262;28;19915;-78
2022/05/21 06:17:46;;;;;;;;;;;15.50;99.90;;;;;;5062746;28;20256;-78
2022/05/21 06:20:44;;;;;;;;;;;15.40;99.90;;;;;;5063497;28;19909;-79
2022/05/21 06:23:20;;;;;;;;;;;15.40;99.90;;;;;;5055897;28;19912;-79
2022/05/21 06:25:47;;;;;;;;;;;15.40;99.90;;;;;;5074107;28;19948;-80
2022/05/21 06:31:20;;;;;;;;;;;15.50;99.90;;;;;;5051695;28;19924;-80
2022/05/21 06:33:46;;;;;;;;;;;15.50;99.90;;;;;;5052577;28;19929;-79
2022/05/21 06:36:12;;;;;;;;;;;15.60;99.90;;;;;;5051880;28;19921;-79
2022/05/21 06:38:39;;;;;;;;;;;15.70;99.90;;;;;;5051897;28;19921;-78
2022/05/21 06:41:04;;;;;;;;;;;15.80;99.90;;;;;;5053573;28;20356;-78
2022/05/21 06:43:30;;;;;;;;;;;15.80;99.90;;;;;;5062794;28;19908;-78
2022/05/21 06:45:56;;;;;;;;;;;15.80;99.90;;;;;;5061920;28;19967;-78
2022/05/21 06:48:21;;;;;;;;;;;15.80;99.90;;;;;;5066588;28;19920;-77
2022/05/21 06:50:47;;;;;;;;;;;16.00;99.90;;;;;;5056709;28;20253;-83
2022/05/21 06:53:13;;;;;;;;;;;15.90;99.90;;;;;;5067859;28;19921;-83
2022/05/21 06:55:39;;;;;;;;;;;15.90;99.90;;;;;;5069720;28;19913;-83
2022/05/21 06:58:05;;;;;;;;;;;15.80;99.90;;;;;;5069772;28;19916;-83
2022/05/21 07:00:30;;;;;;;;;;;15.80;99.90;;;;;;5054271;28;20276;-82
2022/05/21 07:02:56;;;;;;;;;;;15.80;99.90;;;;;;5089148;28;19913;-83
2022/05/21 07:08:14;;;;;;;;;;;15.80;99.90;;;;;;5065153;28;19914;-76
2022/05/21 07:10:39;;;;;;;;;;;16.00;99.90;;;;;;5062181;28;19918;-76
2022/05/21 07:13:05;;;;;;;;;;;16.10;99.90;;;;;;5066605;28;19957;-76
2022/05/21 07:15:30;;;;;;;;;;;16.10;99.90;;;;;;5068469;28;19965;-76
2022/05/21 07:18:01;;;;;;;;;;;16.20;99.90;;;;;;5062964;28;19917;-76
2022/05/21 07:20:27;;;;;;;;;;;16.20;99.90;;;;;;5071015;28;19909;-75
2022/05/21 07:22:53;;;;;;;;;;;16.30;99.90;;;;;;5074104;28;19923;-76
2022/05/21 07:25:21;;;;;;;;;;;16.40;99.90;;;;;;5063323;28;20276;-72
2022/05/21 07:27:46;;;;;;;;;;;16.40;99.90;;;;;;5065332;28;19924;-85
2022/05/21 07:30:12;;;;;;;;;;;16.40;99.90;;;;;;5072684;28;19912;-84
2022/05/21 07:32:37;;;;;;;;;;;16.50;99.90;;;;;;5106801;28;20470;-85
2022/05/21 07:35:08;;;;;;;;;;;16.60;99.90;;;;;;5068280;28;20241;-75
2022/05/21 07:37:33;;;;;;;;;;;16.70;99.90;;;;;;5061639;28;19916;-75
2022/05/21 07:39:59;;;;;;;;;;;16.90;99.90;;;;;;5068934;28;19912;-75
2022/05/21 07:42:25;;;;;;;;;;;17.10;99.90;;;;;;5064423;28;19909;-75
2022/05/21 07:44:50;;;;;;;;;;;17.40;99.90;;;;;;5068793;28;20429;-75
2022/05/21 07:47:16;;;;;;;;;;;17.40;99.90;;;;;;5053863;28;19913;-75
2022/05/21 07:49:42;;;;;;;;;;;17.60;99.90;;;;;;5056880;28;19913;-75
2022/05/21 07:52:08;;;;;;;;;;;18.00;99.90;;;;;;5064770;28;19999;-85
2022/05/21 07:54:33;;;;;;;;;;;18.30;99.90;;;;;;5072554;28;19999;-84
2022/05/21 07:57:01;;;;;;;;;;;18.60;99.90;;;;;;5072579;28;19909;-85
2022/05/21 07:59:27;;;;;;;;;;;18.70;99.90;;;;;;5072537;28;20283;-85
2022/05/21 08:01:52;;;;;;;;;;;18.70;99.90;;;;;;5067491;28;20402;-85
2022/05/21 08:04:18;;;;;;;;;;;18.60;99.90;;;;;;5073876;28;19915;-81
2022/05/21 08:06:44;;;;;;;;;;;18.60;99.90;;;;;;5063114;28;20383;-75
2022/05/21 08:09:10;;;;;;;;;;;18.30;99.90;;;;;;5052524;28;20015;-74
2022/05/21 08:11:36;;;;;;;;;;;18.30;99.90;;;;;;5052358;28;19924;-74
2022/05/21 08:14:02;;;;;;;;;;;18.20;99.90;;;;;;5058698;28;20282;-75
2022/05/21 08:16:29;;;;;;;;;;;18.30;99.90;;;;;;5063886;28;19915;-81
2022/05/21 08:18:54;;;;;;;;;;;18.40;99.90;;;;;;5063921;28;19935;-76
2022/05/21 08:21:20;;;;;;;;;;;18.60;99.90;;;;;;5066374;28;19912;-86
2022/05/21 08:29:14;;;;;;;;;;;18.60;99.90;;;;;;5073252;28;19939;-85
2022/05/21 08:32:02;;;;;;;;;;;18.60;99.90;;;;;;5069545;28;20356;-86
2022/05/21 08:35:02;;;;;;;;;;;18.70;99.90;;;;;;5054185;28;19913;-85
2022/05/21 08:37:56;;;;;;;;;;;18.80;99.90;;;;;;5038268;28;19909;-85
2022/05/21 08:40:50;;;;;;;;;;;18.80;99.90;;;;;;5043646;28;20007;-85
2022/05/21 08:43:20;;;;;;;;;;;18.90;99.90;;;;;;5057669;28;19915;-85
2022/05/21 08:45:56;;;;;;;;;;;19.00;99.90;;;;;;5054020;28;19916;-85
2022/05/21 08:48:23;;;;;;;;;;;19.00;99.90;;;;;;5063968;28;20013;-86
2022/05/21 08:50:50;;;;;;;;;;;19.00;99.90;;;;;;5054277;28;20299;-85
2022/05/21 08:53:17;;;;;;;;;;;19.30;99.90;;;;;;5073124;28;19913;-86
2022/05/21 08:55:44;;;;;;;;;;;19.70;99.90;;;;;;5073484;28;19954;-84
2022/05/21 08:58:15;;;;;;;;;;;19.80;99.90;;;;;;5071078;28;19916;-86
2022/05/21 09:00:42;;;;;;;;;;;20.10;99.90;;;;;;5054673;28;19916;-86
2022/05/21 09:03:20;;;;;;;;;;;20.40;99.90;;;;;;5063817;28;20390;-86
2022/05/21 09:06:11;;;;;;;;;;;20.40;99.90;;;;;;5057331;28;19912;-75
2022/05/21 09:08:50;;;;;;;;;;;20.50;99.90;;;;;;5059754;28;20363;-75
2022/05/21 09:11:38;;;;;;;;;;;20.50;99.90;;;;;;5069810;28;19912;-75
2022/05/21 09:14:08;;;;;;;;;;;20.70;99.90;;;;;;5071280;28;19916;-75
2022/05/21 09:16:56;;;;;;;;;;;20.60;99.90;;;;;;5105086;28;20266;-75
2022/05/21 09:19:24;;;;;;;;;;;20.50;99.90;;;;;;5072692;28;19908;-75
2022/05/21 09:21:56;;;;;;;;;;;20.40;99.90;;;;;;5062562;28;20015;-86
2022/05/21 09:24:40;;;;;;;;;;;20.70;99.90;;;;;;5067526;28;19912;-85
2022/05/21 09:27:23;;;;;;;;;;;21.10;99.90;;;;;;5072811;28;19916;-86
2022/05/21 09:29:50;;;;;;;;;;;21.30;99.90;;;;;;5072002;28;19920;-87
2022/05/21 09:32:17;;;;;;;;;;;21.50;99.90;;;;;;5063680;28;20348;-86
2022/05/21 09:34:43;;;;;;;;;;;21.50;99.90;;;;;;5054171;28;19916;-86
2022/05/21 09:37:16;;;;;;;;;;;21.30;99.90;;;;;;5057671;28;19909;-75
2022/05/21 09:39:42;;;;;;;;;;;21.00;99.90;;;;;;5066624;28;19921;-74
2022/05/21 09:45:36;;;;;;;;;;;20.50;99.90;;;;;;5052617;28;19962;-74
2022/05/21 09:48:05;;;;;;;;;;;20.70;99.90;;;;;;5014507;28;20004;-75
2022/05/21 09:50:50;;;;;;;;;;;20.80;99.90;;;;;;5020419;28;19936;-75
2022/05/21 09:53:38;;;;;;;;;;;20.60;99.90;;;;;;5022329;28;20388;-75
2022/05/21 09:56:13;;;;;;;;;;;20.70;99.90;;;;;;5045891;28;19940;-74
2022/05/21 09:58:41;;;;;;;;;;;20.80;99.90;;;;;;5024820;28;19913;-74
2022/05/21 10:01:08;;;;;;;;;;;20.70;99.90;;;;;;5013838;28;19910;-75
2022/05/21 10:03:50;;;;;;;;;;;20.90;99.90;;;;;;5013177;28;20392;-75
2022/05/21 10:06:17;;;;;;;;;;;21.30;99.90;;;;;;5008881;28;20339;-86
2022/05/21 10:11:41;;;;;;;;;;;21.30;99.90;;;;;;5034124;28;19997;-86
2022/05/21 10:14:16;;;;;;;;;;;21.30;99.90;;;;;;5022408;28;19925;-86
2022/05/21 10:16:47;;;;;;;;;;;21.20;99.90;;;;;;5028071;28;20615;-86
2022/05/21 10:19:16;;;;;;;;;;;21.00;99.90;;;;;;5017575;28;20349;-86
2022/05/21 10:21:57;;;;;;;;;;;20.90;99.90;;;;;;5002585;28;19920;-76
2022/05/21 10:24:28;;;;;;;;;;;21.00;99.90;;;;;;5035586;28;19921;-75
2022/05/21 10:26:59;;;;;;;;;;;21.30;99.90;;;;;;5055159;28;19913;-72
2022/05/21 10:29:37;;;;;;;;;;;21.50;99.90;;;;;;5054467;28;19932;-74
2022/05/21 10:32:09;;;;;;;;;;;21.40;99.90;;;;;;5058518;28;19909;-75
2022/05/21 10:34:52;;;;;;;;;;;21.10;99.90;;;;;;5055971;28;19917;-80
2022/05/21 10:37:18;;;;;;;;;;;20.90;99.90;;;;;;5060293;28;19909;-79
2022/05/21 10:39:49;;;;;;;;;;;21.00;99.90;;;;;;5070767;28;19934;-79
2022/05/21 10:42:18;;;;;;;;;;;20.90;99.90;;;;;;5057746;28;19912;-80
2022/05/21 10:45:16;;;;;;;;;;;20.80;99.90;;;;;;5071622;28;20011;-71
2022/05/21 10:48:04;;;;;;;;;;;21.00;99.90;;;;;;5046295;28;19917;-71
2022/05/21 10:50:50;;;;;;;;;;;21.20;99.90;;;;;;5051729;28;20007;-73
2022/05/21 10:53:23;;;;;;;;;;;21.40;99.90;;;;;;5052095;28;19913;-73
2022/05/21 10:56:01;;;;;;;;;;;21.60;99.90;;;;;;5052269;28;19963;-71
2022/05/21 10:58:43;;;;;;;;;;;21.60;99.90;;;;;;5050188;28;20003;-73
2022/05/21 11:01:19;;;;;;;;;;;21.80;99.90;;;;;;5036446;28;19971;-72
2022/05/21 11:04:03;;;;;;;;;;;22.20;99.90;;;;;;5046845;28;19909;-71
2022/05/21 11:06:31;;;;;;;;;;;22.00;99.90;;;;;;5052516;28;20000;-76
2022/05/21 11:09:11;;;;;;;;;;;21.70;99.90;;;;;;5051576;28;19908;-78
2022/05/21 11:11:57;;;;;;;;;;;21.90;99.90;;;;;;5045691;28;20371;-78
2022/05/21 11:14:27;;;;;;;;;;;22.10;99.90;;;;;;5024706;28;20054;-78
2022/05/21 11:16:53;;;;;;;;;;;22.20;99.90;;;;;;5051719;28;19940;-78
2022/05/21 11:19:30;;;;;;;;;;;22.40;99.90;;;;;;5044421;28;20067;-78
2022/05/21 11:22:02;;;;;;;;;;;22.30;99.90;;;;;;5036981;28;19957;-72
2022/05/21 11:24:33;;;;;;;;;;;22.50;99.90;;;;;;5073783;28;19909;-71
2022/05/21 11:27:00;;;;;;;;;;;22.20;99.90;;;;;;5073934;28;19952;-71
2022/05/21 11:29:35;;;;;;;;;;;22.40;99.90;;;;;;5073634;28;19946;-71
2022/05/21 11:37:46;;;;;;;;;;;22.20;99.90;;;;;;5056202;28;19959;-72
2022/05/21 11:40:31;;;;;;;;;;;22.20;99.90;;;;;;5073969;28;20142;-72
2022/05/21 11:42:56;;;;;;;;;;;22.00;99.90;;;;;;5053819;28;20378;-81
2022/05/21 11:45:23;;;;;;;;;;;22.10;99.90;;;;;;5069632;28;19913;-81
2022/05/21 11:48:11;;;;;;;;;;;22.00;99.90;;;;;;5067111;28;19931;-75
2022/05/21 11:50:40;;;;;;;;;;;21.60;99.90;;;;;;5053428;28;19916;-77
2022/05/21 11:53:09;;;;;;;;;;;21.90;99.90;;;;;;5086633;28;20372;-86
2022/05/21 11:55:53;;;;;;;;;;;22.10;99.90;;;;;;5067576;28;19909;-87
2022/05/21 11:58:23;;;;;;;;;;;22.50;99.90;;;;;;5060457;28;19912;-87
2022/05/21 12:00:49;;;;;;;;;;;22.90;99.90;;;;;;5056989;28;20071;-86
2022/05/21 12:03:16;;;;;;;;;;;23.10;99.90;;;;;;5061549;28;20344;-86
2022/05/21 12:05:44;;;;;;;;;;;23.40;99.90;;;;;;5056690;28;19912;-87
2022/05/21 12:08:17;;;;;;;;;;;23.60;99.90;;;;;;5072118;28;19943;-86
2022/05/21 12:11:08;;;;;;;;;;;23.50;99.90;;;;;;5057446;28;19944;-87
2022/05/21 12:13:33;;;;;;;;;;;23.30;99.90;;;;;;5064709;28;19971;-87
2022/05/21 12:16:19;;;;;;;;;;;23.50;99.90;;;;;;5061531;28;19913;-87
2022/05/21 12:18:48;;;;;;;;;;;23.10;99.90;;;;;;5070395;28;19912;-85
2022/05/21 12:21:29;;;;;;;;;;;23.20;99.90;;;;;;5052919;28;20292;-86
2022/05/21 12:23:58;;;;;;;;;;;23.10;99.90;;;;;;5058405;28;19979;-76
2022/05/21 12:26:29;;;;;;;;;;;23.00;99.90;;;;;;5072979;28;19913;-77
2022/05/21 12:29:15;;;;;;;;;;;22.90;99.90;;;;;;5060285;28;19970;-76
2022/05/21 12:31:40;;;;;;;;;;;23.10;99.90;;;;;;5070713;28;19957;-77
2022/05/21 12:34:09;;;;;;;;;;;23.50;99.90;;;;;;5072925;28;19913;-77
2022/05/21 12:36:46;;;;;;;;;;;23.70;99.90;;;;;;5063469;28;19909;-77
2022/05/21 12:39:14;;;;;;;;;;;23.80;99.90;;;;;;5053119;28;19923;-77
2022/05/21 12:41:48;;;;;;;;;;;24.00;99.90;;;;;;5052312;28;19913;-77
2022/05/21 12:44:32;;;;;;;;;;;23.90;99.90;;;;;;5054166;28;19917;-76
2022/05/21 12:46:58;;;;;;;;;;;24.30;99.90;;;;;;5054512;28;20342;-77
2022/05/21 12:49:24;;;;;;;;;;;24.30;99.90;;;;;;5053381;28;19917;-76
2022/05/21 12:51:50;;;;;;;;;;;24.20;99.90;;;;;;5072662;28;19908;-77
2022/05/21 12:54:23;;;;;;;;;;;24.60;99.90;;;;;;5052506;28;19916;-77
2022/05/21 12:56:49;;;;;;;;;;;24.50;99.90;;;;;;5061585;28;20349;-76
2022/05/21 12:59:23;;;;;;;;;;;24.60;99.90;;;;;;5053181;28;20334;-77
2022/05/21 13:01:59;;;;;;;;;;;24.70;99.90;;;;;;5062538;28;19909;-77
2022/05/21 13:04:29;;;;;;;;;;;24.20;99.90;;;;;;5053394;28;19912;-76
2022/05/21 13:06:58;;;;;;;;;;;24.20;99.90;;;;;;5052692;28;19912;-77
2022/05/21 13:09:24;;;;;;;;;;;24.10;99.90;;;;;;5071396;28;19969;-86
2022/05/21 13:11:49;;;;;;;;;;;24.00;99.90;;;;;;5067516;28;19909;-86
2022/05/21 13:14:34;;;;;;;;;;;23.80;99.90;;;;;;5074641;28;19919;-86
2022/05/21 13:17:00;;;;;;;;;;;23.70;99.90;;;;;;5063397;28;19908;-86
2022/05/21 13:19:50;;;;;;;;;;;23.60;99.90;;;;;;5070396;28;19908;-86
2022/05/21 13:25:22;;;;;;;;;;;24.30;99.90;;;;;;5077458;28;19915;-86
2022/05/21 13:27:49;;;;;;;;;;;24.00;99.90;;;;;;5077586;28;19924;-86
2022/05/21 13:30:51;;;;;;;;;;;23.80;99.90;;;;;;5060067;28;19963;-86
2022/05/21 13:33:29;;;;;;;;;;;24.00;99.90;;;;;;5060048;28;20074;-79
2022/05/21 13:35:57;;;;;;;;;;;24.10;99.90;;;;;;5096128;28;19913;-82
2022/05/21 13:38:28;;;;;;;;;;;23.90;99.90;;;;;;5056592;28;19920;-82
2022/05/21 13:40:55;;;;;;;;;;;24.00;99.90;;;;;;5055779;28;19916;-82
2022/05/21 13:43:22;;;;;;;;;;;24.20;99.90;;;;;;5049083;28;19917;-84
2022/05/21 13:45:57;;;;;;;;;;;24.00;99.90;;;;;;5055744;28;19920;-83
2022/05/21 13:48:35;;;;;;;;;;;23.80;99.90;;;;;;5086275;28;19912;-81
2022/05/21 13:51:01;;;;;;;;;;;23.80;99.90;;;;;;5058430;28;19920;-84
2022/05/21 13:53:28;;;;;;;;;;;23.90;99.90;;;;;;5053403;28;19980;-83
2022/05/21 13:55:55;;;;;;;;;;;23.90;99.90;;;;;;5057897;28;19939;-83
2022/05/21 13:58:28;;;;;;;;;;;24.00;99.90;;;;;;5065593;28;19918;-83
2022/05/21 14:00:54;;;;;;;;;;;24.10;99.90;;;;;;5072961;28;19912;-83
2022/05/21 14:03:26;;;;;;;;;;;23.70;99.90;;;;;;5055546;28;19920;-82
2022/05/21 14:05:53;;;;;;;;;;;23.80;99.90;;;;;;5065129;28;20013;-83
2022/05/21 14:08:21;;;;;;;;;;;23.70;99.90;;;;;;5058927;28;19913;-83
2022/05/21 14:10:55;;;;;;;;;;;23.80;99.90;;;;;;5064956;28;19917;-71
2022/05/21 14:13:27;;;;;;;;;;;24.00;99.90;;;;;;5051735;28;20072;-71
2022/05/21 14:15:53;;;;;;;;;;;24.30;99.90;;;;;;5062343;28;19920;-71
2022/05/21 14:18:36;;;;;;;;;;;24.20;99.90;;;;;;5073855;28;19914;-71
2022/05/21 14:21:04;;;;;;;;;;;24.50;99.90;;;;;;5074988;28;20308;-72
2022/05/21 14:23:35;;;;;;;;;;;24.80;99.90;;;;;;5073859;28;19908;-72
2022/05/21 14:26:19;;;;;;;;;;;24.90;99.90;;;;;;5074104;28;20324;-72
2022/05/21 14:28:45;;;;;;;;;;;25.00;99.90;;;;;;5058569;28;19999;-76
2022/05/21 14:31:21;;;;;;;;;;;25.00;99.90;;;;;;5057195;28;20382;-76
2022/05/21 14:34:05;;;;;;;;;;;24.80;99.90;;;;;;5074851;28;19916;-76
2022/05/21 14:36:35;;;;;;;;;;;24.80;99.90;;;;;;5066376;28;19908;-76
2022/05/21 14:39:03;;;;;;;;;;;24.80;99.90;;;;;;5072320;28;19909;-79
2022/05/21 14:41:33;;;;;;;;;;;24.50;99.90;;;;;;5068962;28;20272;-79
2022/05/21 14:44:29;;;;;;;;;;;24.20;99.90;;;;;;5054252;28;19909;-80
2022/05/21 14:53:01;;;;;;;;;;;24.50;99.90;;;;;;5013310;28;19917;-79
2022/05/21 14:55:27;;;;;;;;;;;24.50;99.90;;;;;;5013687;28;19919;-81
2022/05/21 14:58:15;;;;;;;;;;;24.70;99.90;;;;;;5007838;28;19993;-80
2022/05/21 15:00:56;;;;;;;;;;;25.00;99.90;;;;;;5013133;28;19914;-77
2022/05/21 15:03:56;;;;;;;;;;;25.10;99.90;;;;;;5012829;28;19914;-81
2022/05/21 15:06:32;;;;;;;;;;;24.90;99.90;;;;;;5003814;28;19909;-82
2022/05/21 15:09:09;;;;;;;;;;;25.10;99.90;;;;;;4996825;28;19965;-82
2022/05/21 15:11:38;;;;;;;;;;;25.70;99.90;;;;;;5004617;28;19939;-84
2022/05/21 15:14:20;;;;;;;;;;;25.30;99.90;;;;;;5013896;28;19971;-86
2022/05/21 15:17:08;;;;;;;;;;;25.40;99.90;;;;;;5013332;28;19957;-82
2022/05/21 15:19:39;;;;;;;;;;;25.20;99.90;;;;;;5003270;28;19913;-84
2022/05/21 15:22:29;;;;;;;;;;;24.80;99.90;;;;;;5002582;28;20089;-84
2022/05/21 15:24:55;;;;;;;;;;;24.60;99.90;;;;;;5014038;28;19914;-84
2022/05/21 15:27:20;;;;;;;;;;;25.10;99.90;;;;;;5012105;28;19972;-84
2022/05/21 15:29:51;;;;;;;;;;;26.50;99.90;;;;;;5027975;28;19917;-84
2022/05/21 15:32:33;;;;;;;;;;;27.10;99.90;;;;;;5045745;28;19963;-84
2022/05/21 15:35:15;;;;;;;;;;;27.60;99.90;;;;;;5071952;28;19927;-85
2022/05/21 15:37:50;;;;;;;;;;;29.50;99.90;;;;;;5050662;28;19909;-83
2022/05/21 15:40:16;;;;;;;;;;;31.10;99.90;;;;;;5075006;28;19912;-75
2022/05/21 15:42:44;;;;;;;;;;;32.10;99.90;;;;;;5053805;28;20004;-74
2022/05/21 15:45:11;;;;;;;;;;;32.00;99.90;;;;;;5054381;28;19920;-74
2022/05/21 15:47:36;;;;;;;;;;;32.20;99.90;;;;;;5069970;28;19909;-75
2022/05/21 15:50:02;;;;;;;;;;;32.70;99.90;;;;;;5074418;28;19915;-74